createdAt,value
2018-07-09T00:01:36.656Z,23.70
2018-07-09T00:04:19.549Z,23.60
2018-07-09T00:06:59.065Z,23.60
2018-07-09T00:09:37.437Z,23.60
2018-07-09T00:18:26.462Z,23.10
2018-07-09T00:27:47.929Z,23.50
2018-07-09T00:33:20.057Z,23.30
2018-07-09T00:44:14.724Z,23.00
2018-07-09T00:52:51.308Z,23.00
2018-07-09T00:58:52.260Z,22.80
2018-07-09T01:13:32.745Z,22.80
2018-07-09T01:27:59.003Z,22.80
2018-07-09T01:40:03.434Z,22.70
2018-07-09T01:43:05.481Z,22.60
2018-07-09T01:55:13.383Z,22.60
2018-07-09T01:57:52.835Z,22.50
2018-07-09T02:00:54.699Z,22.50
2018-07-09T02:03:52.935Z,22.50
2018-07-09T02:06:39.070Z,22.60
2018-07-09T02:13:12.528Z,22.50
2018-07-09T02:16:17.018Z,22.50
2018-07-09T02:19:06.629Z,22.60
2018-07-09T02:21:56.560Z,22.60
2018-07-09T02:24:58.122Z,22.60
2018-07-09T02:30:49.762Z,22.60
2018-07-09T02:33:32.759Z,22.50
2018-07-09T02:36:33.041Z,22.40
2018-07-09T02:39:28.309Z,22.30
2018-07-09T02:45:01.981Z,22.20
2018-07-09T02:50:18.168Z,22.10
2018-07-09T02:53:00.956Z,22.10
2018-07-09T03:02:56.150Z,22.10
2018-07-09T03:12:08.218Z,21.90
2018-07-09T03:21:11.039Z,21.80
2018-07-09T03:23:54.940Z,21.80
2018-07-09T03:26:37.644Z,21.70
2018-07-09T03:29:15.764Z,21.70
2018-07-09T03:31:54.533Z,21.70
2018-07-09T03:34:29.789Z,21.60
2018-07-09T03:39:54.094Z,21.50
2018-07-09T03:42:41.272Z,21.50
2018-07-09T03:45:25.465Z,21.50
2018-07-09T03:48:08.489Z,21.50
2018-07-09T03:51:00.285Z,21.50
2018-07-09T03:57:24.559Z,21.50
2018-07-09T04:00:31.535Z,21.40
2018-07-09T04:13:25.963Z,21.20
2018-07-09T04:20:30.334Z,21.20
2018-07-09T04:33:08.412Z,21.10
2018-07-09T04:35:38.625Z,20.70
2018-07-09T04:38:09.489Z,20.70
2018-07-09T04:40:39.665Z,20.70
2018-07-09T04:43:12.384Z,20.90
2018-07-09T04:48:55.511Z,21.00
2018-07-09T04:51:28.805Z,21.10
2018-07-09T04:53:58.475Z,21.20
2018-07-09T04:56:28.081Z,21.20
2018-07-09T04:58:57.452Z,21.20
2018-07-09T05:01:26.922Z,21.30
2018-07-09T05:03:56.216Z,21.30
2018-07-09T05:06:25.935Z,21.30
2018-07-09T05:08:59.196Z,21.30
2018-07-09T05:11:28.460Z,21.30
2018-07-09T05:13:58.349Z,21.40
2018-07-09T05:16:27.706Z,21.40
2018-07-09T05:18:57.188Z,21.50
2018-07-09T05:21:26.788Z,21.50
2018-07-09T05:23:56.550Z,21.50
2018-07-09T05:26:26.350Z,21.50
2018-07-09T05:28:56.198Z,21.50
2018-07-09T05:31:26.903Z,21.60
2018-07-09T05:33:56.923Z,21.60
2018-07-09T05:36:26.371Z,21.60
2018-07-09T05:38:56.207Z,21.70
2018-07-09T05:41:25.773Z,21.70
2018-07-09T05:43:57.191Z,21.80
2018-07-09T05:46:27.074Z,21.80
2018-07-09T05:48:57.387Z,21.90
2018-07-09T05:51:27.073Z,21.90
2018-07-09T05:53:57.911Z,21.90
2018-07-09T05:56:27.491Z,21.90
2018-07-09T05:58:57.626Z,22.00
2018-07-09T06:01:27.004Z,22.00
2018-07-09T06:03:56.452Z,22.10
2018-07-09T06:06:25.970Z,22.10
2018-07-09T06:08:55.789Z,22.20
2018-07-09T06:11:25.622Z,22.30
2018-07-09T06:13:57.139Z,22.40
2018-07-09T06:16:26.509Z,22.40
2018-07-09T06:18:55.963Z,22.40
2018-07-09T06:21:25.259Z,22.40
2018-07-09T06:24:16.895Z,22.60
2018-07-09T06:26:46.373Z,22.60
2018-07-09T06:29:15.848Z,22.80
2018-07-09T06:31:45.597Z,22.90
2018-07-09T06:34:36.670Z,23.00
2018-07-09T06:37:06.602Z,23.00
2018-07-09T06:39:36.498Z,23.00
2018-07-09T06:42:05.845Z,23.00
2018-07-09T06:44:35.732Z,23.00
2018-07-09T06:47:23.278Z,23.00
2018-07-09T06:49:52.772Z,23.00
2018-07-09T06:52:22.047Z,23.20
2018-07-09T06:54:51.390Z,23.30
2018-07-09T06:57:21.087Z,23.20
2018-07-09T06:59:52.881Z,23.20
2018-07-09T07:02:22.305Z,23.20
2018-07-09T07:04:51.619Z,23.10
2018-07-09T07:07:22.148Z,23.00
2018-07-09T07:09:52.059Z,22.90
2018-07-09T07:12:21.873Z,22.80
2018-07-09T07:14:51.524Z,22.80
2018-07-09T07:17:22.050Z,22.80
2018-07-09T07:19:51.421Z,22.80
2018-07-09T07:22:20.969Z,22.90
2018-07-09T07:24:50.378Z,22.90
2018-07-09T07:27:20.036Z,23.00
2018-07-09T07:29:49.461Z,23.00
2018-07-09T07:32:18.874Z,23.00
2018-07-09T07:34:48.327Z,23.10
2018-07-09T07:37:17.647Z,23.20
2018-07-09T07:39:47.797Z,23.30
2018-07-09T07:42:18.322Z,23.40
2018-07-09T07:44:48.394Z,23.40
2018-07-09T07:47:18.939Z,23.40
2018-07-09T07:49:48.785Z,23.50
2018-07-09T07:52:18.426Z,23.60
2018-07-09T07:54:48.730Z,23.60
2018-07-09T07:57:18.677Z,23.60
2018-07-09T07:59:48.444Z,23.60
2018-07-09T08:02:18.453Z,23.60
2018-07-09T08:04:49.103Z,23.70
2018-07-09T08:09:53.169Z,23.90
2018-07-09T08:14:53.977Z,24.10
2018-07-09T08:17:24.403Z,24.10
2018-07-09T08:19:54.421Z,24.10
2018-07-09T08:22:28.089Z,24.10
2018-07-09T08:24:59.299Z,24.20
2018-07-09T08:27:29.220Z,24.30
2018-07-09T08:30:00.496Z,24.40
2018-07-09T08:32:34.675Z,24.50
2018-07-09T08:35:05.079Z,24.60
2018-07-09T08:37:34.973Z,24.60
2018-07-09T08:40:05.930Z,24.70
2018-07-09T08:42:35.899Z,24.90
2018-07-09T08:45:07.251Z,25.00
2018-07-09T08:47:37.099Z,25.00
2018-07-09T08:50:08.653Z,25.10
2018-07-09T08:52:39.026Z,25.30
2018-07-09T08:55:10.257Z,25.30
2018-07-09T08:57:40.986Z,25.40
2018-07-09T09:00:11.821Z,25.50
2018-07-09T09:02:45.666Z,25.60
2018-07-09T09:05:18.276Z,25.70
2018-07-09T09:07:51.678Z,25.70
2018-07-09T09:10:24.476Z,25.80
2018-07-09T09:12:55.351Z,25.90
2018-07-09T09:15:26.816Z,25.90
2018-07-09T09:17:59.978Z,26.00
2018-07-09T09:20:31.183Z,26.10
2018-07-09T09:25:32.752Z,26.20
2018-07-09T09:28:03.874Z,26.30
2018-07-09T09:30:34.552Z,26.30
2018-07-09T09:33:06.896Z,26.30
2018-07-09T09:35:37.435Z,26.30
2018-07-09T09:38:08.619Z,26.40
2018-07-09T09:40:38.081Z,26.60
2018-07-09T09:43:07.864Z,26.70
2018-07-09T09:45:37.162Z,26.80
2018-07-09T09:48:06.549Z,26.90
2018-07-09T09:50:35.949Z,27.10
2018-07-09T09:53:05.255Z,27.30
2018-07-09T09:55:42.787Z,27.30
2018-07-09T09:58:12.219Z,27.30
2018-07-09T10:00:46.829Z,27.30
2018-07-09T10:03:16.212Z,27.30
2018-07-09T10:05:46.182Z,27.30
2018-07-09T10:08:15.667Z,27.40
2018-07-09T10:10:45.788Z,27.50
2018-07-09T10:13:15.692Z,27.40
2018-07-09T10:15:45.497Z,27.40
2018-07-09T10:18:14.980Z,27.40
2018-07-09T10:20:45.092Z,27.40
2018-07-09T10:23:15.152Z,27.60
2018-07-09T10:25:45.085Z,27.80
2018-07-09T10:28:14.359Z,28.00
2018-07-09T10:30:43.653Z,28.10
2018-07-09T10:33:13.140Z,28.10
2018-07-09T10:35:42.869Z,28.10
2018-07-09T10:38:12.708Z,28.10
2018-07-09T10:40:43.007Z,28.00
2018-07-09T10:43:12.948Z,27.90
2018-07-09T10:45:42.604Z,27.80
2018-07-09T10:48:32.748Z,27.70
2018-07-09T10:51:02.361Z,27.70
2018-07-09T10:53:31.667Z,27.60
2018-07-09T10:56:01.002Z,27.60
2018-07-09T10:58:30.470Z,27.60
2018-07-09T11:00:59.700Z,27.70
2018-07-09T11:03:29.176Z,27.90
2018-07-09T11:05:58.819Z,28.00
2018-07-09T11:08:28.114Z,28.10
2018-07-09T11:13:26.299Z,28.30
2018-07-09T11:15:56.269Z,28.40
2018-07-09T11:18:26.181Z,28.50
2018-07-09T11:20:56.961Z,28.60
2018-07-09T11:23:30.685Z,28.60
2018-07-09T11:26:01.047Z,28.60
2018-07-09T11:28:30.983Z,28.60
2018-07-09T11:31:01.422Z,28.60
2018-07-09T11:33:31.650Z,28.80
2018-07-09T11:36:01.523Z,29.10
2018-07-09T11:38:31.476Z,29.20
2018-07-09T11:41:01.465Z,29.60
2018-07-09T11:43:31.731Z,29.90
2018-07-09T11:46:02.003Z,30.20
2018-07-09T11:48:32.060Z,30.70
2018-07-09T11:51:02.104Z,30.70
2018-07-09T11:53:31.996Z,30.60
2018-07-09T11:56:01.962Z,30.50
2018-07-09T12:01:00.293Z,30.60
2018-07-09T12:03:29.651Z,30.80
2018-07-09T12:05:59.891Z,31.20
2018-07-09T12:08:30.060Z,31.80
2018-07-09T12:10:59.848Z,32.20
2018-07-09T12:13:29.848Z,32.30
2018-07-09T12:15:59.589Z,32.60
2018-07-09T12:18:29.042Z,33.00
2018-07-09T12:20:58.901Z,33.10
2018-07-09T12:23:28.627Z,33.00
2018-07-09T12:25:59.450Z,32.90
2018-07-09T12:28:29.383Z,32.90
2018-07-09T12:30:59.023Z,32.90
2018-07-09T12:33:28.938Z,32.70
2018-07-09T12:35:58.824Z,32.50
2018-07-09T12:38:29.352Z,32.70
2018-07-09T12:41:00.056Z,32.80
2018-07-09T12:43:30.882Z,32.90
2018-07-09T12:46:01.410Z,33.10
2018-07-09T12:48:31.718Z,33.40
2018-07-09T12:51:02.319Z,33.80
2018-07-09T12:53:32.434Z,34.20
2018-07-09T12:56:03.170Z,34.30
2018-07-09T12:58:33.324Z,34.20
2018-07-09T13:01:02.992Z,33.90
2018-07-09T13:03:44.637Z,33.80
2018-07-09T13:06:16.235Z,33.70
2018-07-09T13:08:46.784Z,33.70
2018-07-09T13:11:18.599Z,34.00
2018-07-09T13:13:49.513Z,34.40
2018-07-09T13:16:19.991Z,35.00
2018-07-09T13:18:51.009Z,35.00
2018-07-09T13:21:21.822Z,34.90
2018-07-09T13:23:51.161Z,34.80
2018-07-09T13:26:21.411Z,34.90
2018-07-09T13:28:51.082Z,34.90
2018-07-09T13:31:20.970Z,35.00
2018-07-09T13:33:50.812Z,35.20
2018-07-09T13:38:49.628Z,36.30
2018-07-09T13:41:19.492Z,36.70
2018-07-09T13:43:49.550Z,37.00
2018-07-09T13:46:19.621Z,37.30
2018-07-09T13:48:50.365Z,37.30
2018-07-09T13:51:21.116Z,37.40
2018-07-09T13:53:52.055Z,37.30
2018-07-09T13:56:22.941Z,37.20
2018-07-09T13:58:53.247Z,37.00
2018-07-09T14:01:23.308Z,37.10
2018-07-09T14:03:53.571Z,37.30
2018-07-09T14:06:23.649Z,37.60
2018-07-09T14:08:53.828Z,38.00
2018-07-09T14:11:23.991Z,38.40
2018-07-09T14:13:54.984Z,38.80
2018-07-09T14:16:25.278Z,38.80
2018-07-09T14:18:56.133Z,38.60
2018-07-09T14:21:25.936Z,38.60
2018-07-09T14:23:56.295Z,38.50
2018-07-09T14:26:26.413Z,38.40
2018-07-09T14:28:56.428Z,38.50
2018-07-09T14:31:27.430Z,38.70
2018-07-09T14:33:57.451Z,38.80
2018-07-09T14:36:27.650Z,38.90
2018-07-09T14:38:58.023Z,38.90
2018-07-09T14:41:27.943Z,39.10
2018-07-09T14:43:58.006Z,39.00
2018-07-09T14:46:28.210Z,38.80
2018-07-09T14:48:57.738Z,38.50
2018-07-09T14:51:28.952Z,38.40
2018-07-09T14:53:59.525Z,38.20
2018-07-09T14:56:29.690Z,38.00
2018-07-09T14:58:59.682Z,37.80
2018-07-09T15:01:29.769Z,37.90
2018-07-09T15:04:02.516Z,38.30
2018-07-09T15:09:01.589Z,39.20
2018-07-09T15:11:31.402Z,39.10
2018-07-09T15:14:02.415Z,39.10
2018-07-09T15:16:34.661Z,39.00
2018-07-09T15:19:05.420Z,38.80
2018-07-09T15:21:36.558Z,38.80
2018-07-09T15:24:07.480Z,38.80
2018-07-09T15:26:37.611Z,38.90
2018-07-09T15:29:08.124Z,39.00
2018-07-09T15:31:48.217Z,39.00
2018-07-09T15:34:19.723Z,38.80
2018-07-09T15:39:20.883Z,38.50
2018-07-09T15:41:51.212Z,38.50
2018-07-09T15:44:23.824Z,38.60
2018-07-09T15:46:55.133Z,38.80
2018-07-09T15:49:25.399Z,38.80
2018-07-09T15:51:56.748Z,38.60
2018-07-09T15:54:28.055Z,38.60
2018-07-09T15:57:00.668Z,38.70
2018-07-09T15:59:34.328Z,38.80
2018-07-09T16:02:04.797Z,38.80
2018-07-09T16:04:35.517Z,38.60
2018-07-09T16:07:07.185Z,38.50
2018-07-09T16:09:38.163Z,38.30
2018-07-09T16:12:08.181Z,38.00
2018-07-09T16:14:38.491Z,37.80
2018-07-09T16:17:10.497Z,37.80
2018-07-09T16:19:40.450Z,37.70
2018-07-09T16:22:10.631Z,37.60
2018-07-09T16:24:41.245Z,37.30
2018-07-09T16:27:12.040Z,37.20
2018-07-09T16:29:43.259Z,37.30
2018-07-09T16:35:28.346Z,37.10
2018-07-09T16:37:58.290Z,37.00
2018-07-09T16:40:29.293Z,37.00
2018-07-09T16:42:59.456Z,36.90
2018-07-09T16:45:30.429Z,36.90
2018-07-09T16:48:00.987Z,36.80
2018-07-09T16:50:31.631Z,36.50
2018-07-09T16:53:01.852Z,36.10
2018-07-09T16:55:32.048Z,35.40
2018-07-09T16:58:02.625Z,35.10
2018-07-09T17:00:33.109Z,34.50
2018-07-09T17:03:03.934Z,33.80
2018-07-09T17:05:35.268Z,33.20
2018-07-09T17:08:05.537Z,32.70
2018-07-09T17:10:35.892Z,32.20
2018-07-09T17:13:05.973Z,31.80
2018-07-09T17:22:31.216Z,31.00
2018-07-09T17:39:21.692Z,30.70
2018-07-09T17:45:16.965Z,30.20
2018-07-09T17:59:07.124Z,30.40
2018-07-09T18:01:36.990Z,30.10
2018-07-09T18:04:07.068Z,29.80
2018-07-09T18:06:36.703Z,29.50
2018-07-09T18:09:06.743Z,29.20
2018-07-09T18:11:36.447Z,28.90
2018-07-09T18:14:06.027Z,28.50
2018-07-09T18:16:35.529Z,28.30
2018-07-09T18:19:05.328Z,28.00
2018-07-09T18:22:01.634Z,27.70
2018-07-09T18:28:52.125Z,27.30
2018-07-09T18:47:34.938Z,26.40
2018-07-09T18:50:09.606Z,25.70
2018-07-09T18:52:41.583Z,25.60
2018-07-09T18:55:46.456Z,25.40
2018-07-09T18:58:16.022Z,25.20
2018-07-09T19:01:19.410Z,25.20
2018-07-09T19:04:01.399Z,25.10
2018-07-09T19:07:45.515Z,25.00
2018-07-09T19:10:33.914Z,24.90
2018-07-09T19:16:24.072Z,24.70
2018-07-09T19:22:37.984Z,24.50
2018-07-09T19:39:33.720Z,23.90
2018-07-09T19:42:17.106Z,23.90
2018-07-09T19:44:53.005Z,23.80
2018-07-09T20:02:13.959Z,23.50
2018-07-09T20:04:51.105Z,23.40
2018-07-09T20:07:34.082Z,23.40
2018-07-09T20:13:22.286Z,23.20
2018-07-09T20:18:50.043Z,23.10
2018-07-09T20:30:04.307Z,22.80
2018-07-09T20:32:47.620Z,22.80
2018-07-09T20:38:12.272Z,22.70
2018-07-09T20:43:34.441Z,22.60
2018-07-09T20:49:00.190Z,22.60
2018-07-09T20:51:36.766Z,22.50
2018-07-09T20:54:15.386Z,22.50
2018-07-09T20:59:54.689Z,22.50
2018-07-09T21:02:43.627Z,22.40
2018-07-09T21:05:33.231Z,22.40
2018-07-09T21:08:21.901Z,22.30
2018-07-09T21:11:00.595Z,22.30
2018-07-09T21:13:40.301Z,22.20
2018-07-09T21:16:28.104Z,22.20
2018-07-09T21:19:24.384Z,22.20
2018-07-09T21:24:45.658Z,22.10
2018-07-09T21:33:34.213Z,22.10
2018-07-09T21:36:14.473Z,22.00
2018-07-09T21:41:47.963Z,21.70
2018-07-09T21:50:25.057Z,21.60
2018-07-09T21:53:09.047Z,21.60
2018-07-09T21:59:11.049Z,21.50
2018-07-09T22:04:47.683Z,21.40
2018-07-09T22:10:21.725Z,21.30
2018-07-09T22:15:47.918Z,21.30
2018-07-09T22:21:29.328Z,21.20
2018-07-09T22:24:13.069Z,21.20
2018-07-09T22:26:55.246Z,21.20
2018-07-09T22:29:38.754Z,21.20
2018-07-09T22:35:29.091Z,21.10
2018-07-09T22:41:17.769Z,21.10
2018-07-09T22:47:14.772Z,21.10
2018-07-09T22:56:06.879Z,21.00
2018-07-09T23:05:00.243Z,21.10
2018-07-09T23:22:32.261Z,21.10
2018-07-09T23:25:10.784Z,21.00
2018-07-09T23:27:39.619Z,21.00
2018-07-09T23:30:07.725Z,21.00
2018-07-09T23:32:35.887Z,21.00
2018-07-09T23:35:03.998Z,21.00
2018-07-09T23:37:32.144Z,21.10
2018-07-09T23:40:00.309Z,21.10
2018-07-09T23:42:28.668Z,21.10
2018-07-09T23:44:56.847Z,21.10
2018-07-09T23:47:25.012Z,21.10
2018-07-09T23:49:53.186Z,21.10
2018-07-09T23:52:21.487Z,21.10
2018-07-09T23:54:49.571Z,21.00
2018-07-09T23:57:30.429Z,21.00
